Time;durP1;ratioP1;P1;durP2;ratioP2;P2;SDS_P1;SDS_P2;PMS_P1;PMS_P2;Temp;Humidity;BMP_temperature;BMP_pressure;BME280_temperature;BME280_humidity;BME280_pressure;Samples;Min_cycle;Max_cycle;Signal;HPM_P1;HPM_P2
2022/08/03 00:02:23;;;;;;;2.47;1.77;;;21.40;72.90;;;20.05;60.46;100193.50;10400787;27;96599;-84
2022/08/03 00:07:25;;;;;;;1.90;1.70;;;21.30;73.30;;;19.96;61.05;100206.50;10409500;27;96744;-83
2022/08/03 00:12:28;;;;;;;2.53;1.83;;;21.20;73.90;;;19.86;61.60;100211.63;10423481;27;96537;-83
2022/08/03 00:17:31;;;;;;;3.55;1.90;;;21.10;74.60;;;19.78;62.01;100206.53;10405976;27;97233;-84
2022/08/03 00:22:54;;;;;;;2.47;1.80;;;21.00;75.20;;;19.73;62.49;100207.25;10430405;27;97725;-84
2022/08/03 00:27:57;;;;;;;2.72;2.50;;;20.90;75.80;;;19.65;62.99;100202.13;10440025;27;96858;-84
2022/08/03 00:33:01;;;;;;;4.78;2.65;;;20.90;76.40;;;19.60;63.27;100203.88;10445048;27;96793;-84
2022/08/03 00:38:04;;;;;;;2.38;2.00;;;20.90;77.00;;;19.53;63.90;100212.00;10430160;27;96725;-84
2022/08/03 00:43:07;;;;;;;2.25;2.00;;;20.70;77.50;;;19.45;64.28;100218.53;10400701;27;96587;-84
2022/08/03 00:48:12;;;;;;;2.25;2.05;;;20.70;78.00;;;19.42;64.77;100216.28;10423411;27;96646;-84
2022/08/03 00:53:36;;;;;;;3.00;2.53;;;20.60;78.60;;;19.39;65.19;100213.22;10433897;27;98628;-84
2022/08/03 00:58:40;;;;;;;3.20;2.47;;;20.60;79.20;;;19.37;64.71;100212.59;10423047;27;96957;-84
2022/08/03 01:03:43;;;;;;;5.28;2.55;;;20.60;79.70;;;19.30;66.23;100218.06;10400582;27;96621;-84
2022/08/03 01:09:26;;;;;;;3.13;2.83;;;20.60;80.70;;;19.27;66.69;100217.72;10406405;27;98579;-82
2022/08/03 01:14:51;;;;;;;3.80;3.40;;;20.40;81.30;;;19.23;66.76;100222.72;10409160;27;96650;-84
2022/08/03 01:20:06;;;;;;;3.50;3.20;;;20.40;82.10;;;19.22;66.75;100227.28;10426018;27;98294;-84
2022/08/03 01:25:48;;;;;;;3.55;2.80;;;20.40;82.60;;;19.21;67.27;100231.03;10415562;27;96564;-84
2022/08/03 01:31:02;;;;;;;3.20;2.90;;;20.40;83.30;;;19.17;67.64;100229.81;10420828;27;96926;-84
2022/08/03 01:36:13;;;;;;;3.47;3.17;;;20.40;83.90;;;19.16;68.15;100233.56;10405450;28;96530;-84
2022/08/03 01:41:30;;;;;;;3.85;3.30;;;20.40;84.80;;;19.15;68.15;100231.09;10443077;27;96708;-84
2022/08/03 01:46:37;;;;;;;3.70;3.38;;;20.30;85.50;;;19.10;68.27;100233.63;10431234;27;96769;-84
2022/08/03 01:51:42;;;;;;;3.88;3.58;;;20.30;86.30;;;19.07;68.52;100231.38;10422575;27;96688;-84
2022/08/03 01:57:06;;;;;;;3.88;3.50;;;20.30;87.20;;;19.04;69.12;100223.75;10439807;27;96687;-84
2022/08/03 02:02:13;;;;;;;3.75;3.20;;;20.30;88.20;;;18.99;69.19;100222.53;10426936;27;96686;-84
2022/08/03 02:07:36;;;;;;;4.45;4.00;;;20.20;89.20;;;18.94;69.78;100224.25;10420605;27;96583;-84
2022/08/03 02:12:41;;;;;;;4.25;3.80;;;20.20;90.10;;;18.86;70.41;100217.28;10436647;27;97393;-83
2022/08/03 02:17:49;;;;;;;5.40;4.55;;;20.10;90.70;;;18.81;70.93;100233.28;10432138;27;97008;-83
2022/08/03 02:22:52;;;;;;;4.78;4.28;;;20.00;91.40;;;18.79;71.32;100227.31;10442516;27;96802;-83
2022/08/03 02:28:01;;;;;;;4.15;3.75;;;20.00;92.10;;;18.76;72.18;100218.84;10436707;27;96745;-84
2022/08/03 02:33:10;;;;;;;4.95;4.43;;;20.00;92.60;;;18.75;72.03;100230.66;10441263;27;97824;-84
2022/08/03 02:38:17;;;;;;;7.10;3.60;;;20.00;93.10;;;18.72;72.53;100229.25;10427807;27;96690;-84
2022/08/03 02:43:23;;;;;;;5.18;3.88;;;20.00;93.50;;;18.74;72.34;100227.13;10426320;27;97087;-84
2022/08/03 02:48:30;;;;;;;4.85;4.45;;;20.00;93.90;;;18.76;72.55;100235.81;10404498;27;96566;-84
2022/08/03 02:53:35;;;;;;;6.50;4.43;;;20.00;94.40;;;18.74;72.66;100229.00;10401876;27;97138;-84
2022/08/03 02:58:41;;;;;;;5.28;4.30;;;20.00;94.80;;;18.74;72.70;100229.84;10404848;27;96511;-84
2022/08/03 03:03:45;;;;;;;4.70;4.10;;;20.00;95.20;;;18.78;72.78;100222.97;10410023;28;96613;-84
2022/08/03 03:08:50;;;;;;;4.35;3.80;;;20.00;95.60;;;18.78;73.15;100235.59;10422261;27;96599;-84
2022/08/03 03:13:57;;;;;;;4.43;4.03;;;20.00;95.90;;;18.74;73.51;100229.84;10404480;27;97094;-84
2022/08/03 03:19:01;;;;;;;4.40;4.00;;;20.00;96.40;;;18.82;73.69;100237.63;10405416;27;96578;-84
2022/08/03 03:24:06;;;;;;;4.88;4.47;;;20.00;96.90;;;18.86;74.30;100233.44;10418052;27;96668;-84
2022/08/03 03:29:09;;;;;;;16.33;13.88;;;20.10;97.00;;;18.91;73.77;100230.09;10410704;27;96600;-84
2022/08/03 03:34:12;;;;;;;6.90;6.20;;;20.20;97.10;;;18.95;73.54;100233.97;10399647;28;97041;-84
2022/08/03 03:39:15;;;;;;;6.22;4.63;;;20.20;97.30;;;18.95;73.57;100229.44;10419568;27;96673;-85
2022/08/03 03:44:19;;;;;;;6.63;4.90;;;20.20;97.40;;;18.94;74.49;100235.84;10422877;27;96869;-85
2022/08/03 03:49:22;;;;;;;5.65;5.07;;;20.20;97.50;;;18.96;74.52;100227.56;10400054;27;96806;-85
2022/08/03 03:54:25;;;;;;;5.93;4.70;;;20.30;97.60;;;18.98;74.42;100228.97;10432789;27;96692;-85
2022/08/03 03:59:31;;;;;;;5.47;4.80;;;20.30;97.80;;;19.02;74.68;100236.63;10440152;27;96716;-85
2022/08/03 04:15:25;;;;;;;5.35;4.10;;;20.30;98.20;;;19.08;74.20;100251.91;10420158;27;96697;-85
2022/08/03 04:20:31;;;;;;;5.70;3.97;;;20.30;98.40;;;19.12;74.28;100253.91;10435508;27;96666;-84
2022/08/03 04:25:37;;;;;;;4.93;4.10;;;20.40;98.70;;;19.22;74.46;100254.22;10416208;27;98413;-82
2022/08/03 04:30:46;;;;;;;4.80;4.20;;;20.40;99.00;;;19.31;74.93;100254.78;10423218;27;96604;-83
2022/08/03 04:35:54;;;;;;;4.77;3.97;;;20.50;99.10;;;19.44;74.70;100272.66;10424753;27;97376;-83
2022/08/03 04:41:06;;;;;;;5.80;4.15;;;20.70;99.20;;;19.57;74.65;100266.31;10413885;27;98037;-83
2022/08/03 04:46:11;;;;;;;6.38;4.25;;;20.80;99.10;;;19.70;74.75;100266.16;10441394;27;97442;-82
2022/08/03 04:51:14;;;;;;;5.68;4.10;;;20.90;99.20;;;19.80;74.61;100269.16;10417865;27;97625;-82
2022/08/03 04:56:17;;;;;;;5.55;4.80;;;21.00;99.30;;;19.90;74.13;100280.22;10433609;27;97302;-83
2022/08/03 05:01:21;;;;;;;5.57;4.45;;;21.00;99.20;;;20.00;73.64;100293.16;10421105;27;96817;-83
2022/08/03 05:06:25;;;;;;;4.60;4.07;;;21.10;99.20;;;20.11;73.44;100294.28;10420797;27;98379;-83
2022/08/03 05:11:27;;;;;;;5.10;4.40;;;21.20;99.10;;;20.23;73.48;100297.84;10419768;27;97435;-82
2022/08/03 05:16:31;;;;;;;5.50;4.22;;;21.40;99.00;;;20.36;72.81;100297.66;10443517;27;97463;-82
2022/08/03 05:21:34;;;;;;;5.18;4.20;;;21.50;98.80;;;20.49;72.63;100305.59;10441854;27;98492;-82
2022/08/03 05:26:54;;;;;;;6.37;4.10;;;21.70;98.60;;;20.69;72.44;100307.16;10421707;27;97982;-86
2022/08/03 05:31:57;;;;;;;13.23;4.30;;;21.80;98.60;;;20.85;71.97;100309.19;10418801;27;98033;-87
2022/08/03 05:37:00;;;;;;;8.68;4.18;;;22.10;98.10;;;21.00;71.36;100312.28;10436510;27;96998;-84
2022/08/03 05:42:03;;;;;;;7.30;3.40;;;22.20;97.80;;;21.48;72.34;100313.97;10439070;27;97335;-84
2022/08/03 05:47:06;;;;;;;10.55;4.35;;;22.40;97.60;;;21.95;69.46;100305.75;10450146;27;97542;-83
2022/08/03 05:52:09;;;;;;;7.15;4.70;;;22.60;97.40;;;21.96;68.06;100312.81;10444355;27;96471;-82
2022/08/03 05:57:16;;;;;;;9.98;4.88;;;22.70;97.00;;;21.98;68.11;100318.78;10459300;27;97578;-82
2022/08/03 06:02:18;;;;;;;8.70;3.97;;;22.90;97.00;;;22.09;68.16;100317.97;10466273;27;97276;-82
2022/08/03 06:07:23;;;;;;;5.45;3.45;;;23.10;96.80;;;22.29;68.03;100319.41;10476609;27;98344;-87
2022/08/03 06:12:25;;;;;;;6.85;3.03;;;23.40;96.50;;;22.50;67.29;100316.03;10478942;27;96845;-87
2022/08/03 06:17:29;;;;;;;7.43;3.03;;;23.60;96.00;;;22.74;66.63;100318.63;10469480;27;97391;-87
2022/08/03 06:22:39;;;;;;;6.32;4.28;;;23.90;95.60;;;22.97;64.89;100323.91;10449716;27;97056;-87
2022/08/03 06:28:02;;;;;;;4.45;3.08;;;24.10;94.80;;;23.18;64.01;100327.75;10465685;27;97468;-86
2022/08/03 06:33:05;;;;;;;7.47;3.80;;;24.30;94.20;;;23.37;63.25;100325.59;10469645;27;96837;-88
2022/08/03 06:38:10;;;;;;;4.88;4.10;;;24.60;93.70;;;23.56;62.77;100323.41;10446197;27;96676;-85
2022/08/03 06:43:14;;;;;;;4.93;4.13;;;24.80;93.30;;;23.80;61.75;100322.13;10433053;27;97013;-85
2022/08/03 06:48:17;;;;;;;5.30;3.70;;;25.00;92.70;;;24.06;61.15;100320.56;10405874;28;97554;-84
2022/08/03 06:53:20;;;;;;;4.35;3.80;;;25.20;92.30;;;24.31;59.87;100322.75;10420436;27;96389;-85
2022/08/03 06:58:23;;;;;;;5.95;4.10;;;25.50;91.70;;;24.58;58.69;100322.75;10422088;27;97912;-84
2022/08/03 07:03:26;;;;;;;6.53;4.18;;;25.70;90.60;;;24.81;58.02;100322.44;10413993;27;98327;-84
2022/08/03 07:08:30;;;;;;;5.80;4.55;;;26.00;90.00;;;25.04;56.95;100321.25;10420192;28;96564;-85
2022/08/03 07:13:36;;;;;;;6.32;3.80;;;26.20;88.50;;;25.24;55.63;100319.78;10406135;27;97373;-85
2022/08/03 07:18:39;;;;;;;5.93;4.15;;;26.40;86.90;;;25.35;53.94;100322.31;10423544;27;97907;-85
2022/08/03 07:23:42;;;;;;;4.97;3.92;;;26.60;84.20;;;25.46;54.12;100330.53;10416309;27;96688;-85
2022/08/03 07:28:45;;;;;;;6.10;4.50;;;26.70;83.00;;;25.38;52.56;100325.63;10420812;27;96721;-89
2022/08/03 07:33:48;;;;;;;5.63;4.75;;;26.70;80.70;;;25.25;52.63;100324.13;10418720;27;98509;-88
2022/08/03 07:38:51;;;;;;;7.35;4.57;;;26.60;79.80;;;25.19;52.33;100330.63;10426464;27;97149;-88
2022/08/03 07:43:54;;;;;;;4.97;4.45;;;26.50;79.40;;;25.22;53.22;100332.84;10409777;27;98340;-88
2022/08/03 07:48:57;;;;;;;3.80;3.20;;;26.50;79.70;;;25.42;52.35;100319.34;10426148;27;96907;-90
2022/08/03 07:54:00;;;;;;;5.55;4.38;;;26.60;79.20;;;25.67;52.59;100307.81;10434444;27;96601;-88
2022/08/03 07:59:03;;;;;;;5.72;4.15;;;26.80;78.70;;;25.95;51.32;100308.50;10390505;28;97297;-88
2022/08/03 08:04:06;;;;;;;7.53;4.85;;;27.10;78.10;;;26.13;50.39;100310.72;10411609;27;96814;-88
2022/08/03 08:09:10;;;;;;;4.93;4.53;;;27.30;76.60;;;26.34;50.69;100304.25;10399992;28;97076;-88
2022/08/03 08:14:13;;;;;;;4.72;3.97;;;27.60;76.10;;;26.56;50.13;100301.28;10426389;27;96927;-88
2022/08/03 08:19:16;;;;;;;4.40;3.95;;;27.70;75.50;;;26.76;48.25;100303.25;10431056;27;97053;-87
2022/08/03 08:24:20;;;;;;;5.95;4.90;;;28.00;74.00;;;26.97;47.74;100303.22;10389755;27;98245;-88
2022/08/03 08:29:24;;;;;;;5.32;3.88;;;28.20;72.10;;;27.19;47.52;100306.50;10401391;27;96699;-92
2022/08/03 08:34:27;;;;;;;5.18;4.47;;;28.40;71.50;;;27.34;47.38;100302.91;10419163;27;96711;-88
2022/08/03 08:39:33;;;;;;;4.88;4.38;;;28.60;70.70;;;27.59;46.61;100300.13;10405881;27;96696;-88
2022/08/03 08:44:37;;;;;;;8.02;3.47;;;28.80;70.30;;;27.80;46.31;100298.16;10440843;27;96844;-88
2022/08/03 08:49:40;;;;;;;6.90;4.05;;;28.90;69.70;;;27.90;45.75;100295.41;10425019;27;98045;-88
2022/08/03 08:55:07;;;;;;;5.05;4.55;;;29.10;68.40;;;28.05;44.27;100291.75;10426611;27;96865;-87
2022/08/03 09:00:14;;;;;;;5.55;4.10;;;29.30;67.10;;;28.17;44.75;100284.03;10416902;27;96722;-88
2022/08/03 09:05:19;;;;;;;6.68;4.63;;;29.40;66.70;;;28.26;44.00;100281.53;10403035;27;96757;-86
2022/08/03 09:10:42;;;;;;;4.00;3.63;;;29.50;65.60;;;28.34;43.68;100282.88;10413131;27;97422;-89
2022/08/03 09:15:45;;;;;;;3.97;3.45;;;29.60;65.40;;;28.46;43.07;100280.59;10434622;27;96610;-90
2022/08/03 09:21:19;;;;;;;4.60;3.88;;;29.70;64.70;;;28.57;42.87;100284.09;10420683;27;96685;-88
2022/08/03 09:26:37;;;;;;;3.95;3.40;;;29.80;63.60;;;28.60;41.71;100273.38;10399999;27;96971;-89
2022/08/03 09:31:44;;;;;;;3.50;3.20;;;29.80;63.00;;;28.59;41.41;100268.19;10381727;28;96554;-88
2022/08/03 09:36:52;;;;;;;3.33;3.03;;;29.80;61.70;;;28.74;41.13;100276.28;10401347;27;96517;-88
2022/08/03 09:42:16;;;;;;;3.30;3.00;;;30.00;61.30;;;28.85;39.68;100271.53;10453425;27;96511;-87
2022/08/03 09:47:32;;;;;;;5.03;2.92;;;30.10;58.70;;;28.69;40.38;100268.94;10433385;27;96540;-89
2022/08/03 09:52:40;;;;;;;3.65;3.35;;;29.90;60.00;;;28.75;40.35;100259.59;10414593;27;96824;-89
2022/08/03 09:58:09;;;;;;;3.78;3.47;;;30.00;59.90;;;28.94;40.41;100254.25;10408513;27;96673;-89
2022/08/03 10:03:12;;;;;;;3.42;3.10;;;30.10;59.70;;;29.17;38.48;100247.19;10401262;28;96585;-88
2022/08/03 10:08:17;;;;;;;4.70;3.20;;;30.40;58.40;;;29.28;37.55;100245.16;10392535;27;96637;-89
2022/08/03 10:13:22;;;;;;;3.25;2.70;;;30.60;56.90;;;29.44;37.21;100235.63;10411383;27;98289;-88
2022/08/03 10:18:25;;;;;;;3.72;3.38;;;30.70;56.50;;;29.49;37.13;100223.81;10393411;27;96812;-90
2022/08/03 10:23:32;;;;;;;4.68;3.20;;;30.80;55.90;;;29.53;36.54;100217.50;10418340;27;96649;-88
2022/08/03 10:28:41;;;;;;;4.40;3.10;;;30.90;55.20;;;29.84;36.73;100214.34;10406849;27;96682;-92
2022/08/03 10:33:50;;;;;;;3.70;3.25;;;31.10;55.60;;;29.97;37.00;100210.84;10396808;27;96585;-88
2022/08/03 10:38:55;;;;;;;3.72;3.03;;;31.30;55.30;;;30.17;36.57;100214.44;10435654;27;96757;-89
2022/08/03 10:44:09;;;;;;;4.57;3.42;;;31.50;55.10;;;30.32;36.87;100200.50;10409105;27;96885;-88
2022/08/03 10:49:14;;;;;;;3.70;3.17;;;31.70;55.70;;;30.56;36.74;100205.84;10404151;27;96848;-90
2022/08/03 11:00:10;;;;;;;5.40;2.72;;;32.00;54.30;;;30.97;35.74;100186.75;10406947;27;96990;-88
2022/08/03 11:05:28;;;;;;;3.17;2.85;;;32.30;53.90;;;31.17;33.77;100182.78;10386502;28;96557;-88
2022/08/03 11:10:31;;;;;;;2.63;2.43;;;32.50;52.70;;;31.25;34.43;100181.28;10421297;27;97010;-89
2022/08/03 11:15:35;;;;;;;3.85;2.65;;;32.70;52.60;;;31.23;34.23;100178.00;10443007;27;96634;-90
2022/08/03 11:20:46;;;;;;;2.92;2.45;;;32.70;51.80;;;31.40;33.52;100173.53;10408095;28;96799;-88
2022/08/03 11:26:14;;;;;;;2.47;2.28;;;32.80;51.20;;;31.62;32.52;100161.00;10402558;28;96533;-88
2022/08/03 11:31:25;;;;;;;2.40;2.20;;;33.00;50.90;;;31.82;32.47;100157.81;10442807;27;96994;-89
2022/08/03 11:37:23;;;;;;;2.33;2.00;;;33.20;50.50;;;31.75;30.70;100153.84;10430094;27;96520;-88
2022/08/03 11:42:35;;;;;;;2.40;2.00;;;33.20;48.90;;;31.69;30.04;100156.69;10429224;27;98503;-88
2022/08/03 11:47:40;;;;;;;3.53;2.13;;;33.20;47.90;;;31.86;30.63;100147.81;10459729;27;96456;-88
2022/08/03 11:52:53;;;;;;;2.00;1.73;;;33.20;47.80;;;32.14;30.48;100144.94;10427423;27;96662;-86
2022/08/03 11:57:59;;;;;;;2.85;1.77;;;33.40;47.80;;;32.36;29.82;100136.72;10413619;27;97983;-88
2022/08/03 12:03:22;;;;;;;3.38;1.90;;;33.50;47.20;;;32.65;29.63;100132.66;10428771;27;96746;-85
2022/08/03 12:08:26;;;;;;;2.00;1.58;;;33.80;47.70;;;32.52;28.25;100134.38;10450998;27;97065;-85
2022/08/03 12:13:55;;;;;;;1.77;1.50;;;33.90;45.90;;;32.54;28.75;100126.63;10424390;27;97084;-86
2022/08/03 12:19:18;;;;;;;1.50;1.40;;;34.00;46.10;;;32.79;28.02;100130.59;10418453;27;96812;-85
2022/08/03 12:24:21;;;;;;;1.98;1.50;;;34.40;45.30;;;32.58;28.51;100115.81;10419114;28;97402;-86
2022/08/03 12:29:25;;;;;;;2.25;1.30;;;34.10;45.20;;;32.42;28.53;100123.66;10407136;27;98483;-89
2022/08/03 12:34:48;;;;;;;1.80;1.70;;;33.70;45.90;;;32.63;28.52;100116.47;10431146;27;96718;-85
2022/08/03 12:39:53;;;;;;;2.47;1.80;;;33.90;45.90;;;32.76;28.18;100101.81;10397065;27;96849;-85
2022/08/03 12:45:31;;;;;;;2.03;1.60;;;34.30;45.10;;;33.27;26.88;100092.06;10410979;27;96763;-86
2022/08/03 12:50:37;;;;;;;1.50;1.40;;;34.90;43.90;;;33.48;25.96;100091.47;10424412;27;96869;-86
2022/08/03 12:55:40;;;;;;;1.77;1.65;;;35.50;43.30;;;33.68;26.60;100085.31;10426513;27;96628;-85
2022/08/03 13:01:07;;;;;;;1.83;1.60;;;35.90;43.30;;;33.83;26.11;100089.53;10415702;27;96762;-85
2022/08/03 13:06:14;;;;;;;3.40;2.00;;;36.00;42.70;;;33.63;26.26;100081.91;10438099;27;96727;-86
2022/08/03 13:11:21;;;;;;;1.90;1.52;;;35.80;42.50;;;33.45;26.70;100078.34;10413980;27;98356;-86
2022/08/03 13:16:44;;;;;;;3.63;1.50;;;35.50;43.20;;;33.31;26.62;100072.16;10426400;27;97296;-85
2022/08/03 13:21:48;;;;;;;2.30;1.80;;;35.30;42.50;;;33.26;26.52;100070.38;10424151;27;97058;-85
2022/08/03 13:27:06;;;;;;;;;;;35.10;42.70;;;33.03;25.76;100072.44;10417960;27;97443;-85
2022/08/03 13:32:29;;;;;;;3.15;1.48;;;34.80;42.30;;;33.00;26.87;100070.34;10410865;27;98433;-88
2022/08/03 13:37:32;;;;;;;2.08;1.50;;;34.60;42.60;;;32.76;27.00;100068.78;10413881;27;96715;-85
2022/08/03 13:42:36;;;;;;;2.67;1.67;;;34.30;43.10;;;32.45;27.37;100073.53;10405455;27;96611;-85
2022/08/03 13:47:40;;;;;;;1.60;1.40;;;33.90;43.60;;;32.08;27.60;100069.25;10398319;27;96528;-85
2022/08/03 13:52:45;;;;;;;4.05;1.70;;;33.40;44.00;;;31.77;28.15;100066.41;10387337;27;96956;-85
2022/08/03 13:57:48;;;;;;;1.63;1.50;;;33.00;44.50;;;31.49;29.31;100063.81;10431605;27;96670;-85
2022/08/03 14:03:08;;;;;;;2.63;1.60;;;32.70;45.30;;;31.46;30.10;100058.91;10410015;27;97812;-86
2022/08/03 14:08:16;;;;;;;3.90;1.83;;;32.60;46.00;;;31.67;29.08;100053.75;10398114;27;96822;-85
2022/08/03 14:13:19;;;;;;;2.17;1.50;;;32.80;45.50;;;31.99;28.55;100047.22;10412407;27;96990;-84
2022/08/03 14:18:22;;;;;;;2.22;1.52;;;33.30;44.70;;;32.32;27.12;100036.69;10427790;27;96816;-88
2022/08/03 14:23:38;;;;;;;1.73;1.50;;;33.70;43.80;;;32.73;26.72;100022.63;10398002;27;97120;-84
2022/08/03 14:28:41;;;;;;;4.32;2.05;;;34.10;43.20;;;33.10;26.00;100023.22;10408159;27;98612;-84
2022/08/03 14:33:44;;;;;;;2.20;1.90;;;34.40;42.80;;;33.45;25.49;100017.75;10446369;27;96652;-83
2022/08/03 14:38:47;;;;;;;3.38;1.70;;;34.80;42.30;;;33.73;24.84;100016.25;10412166;27;97178;-84
2022/08/03 14:43:50;;;;;;;2.50;1.60;;;35.10;41.90;;;33.74;24.97;100009.59;10434534;27;96660;-84
2022/08/03 14:49:04;;;;;;;3.88;1.77;;;35.20;41.30;;;33.66;24.78;100010.44;10420837;28;96554;-83
2022/08/03 14:54:29;;;;;;;1.80;1.42;;;35.20;40.70;;;33.65;24.34;100008.81;10429557;27;96748;-83
2022/08/03 14:59:32;;;;;;;2.92;1.60;;;35.10;40.50;;;33.85;24.22;99999.06;10426542;27;96517;-83
2022/08/03 15:04:55;;;;;;;2.83;1.40;;;35.20;40.60;;;33.81;23.83;100006.34;10405892;27;96953;-83
2022/08/03 15:09:58;;;;;;;2.72;1.60;;;35.30;40.40;;;33.48;24.01;100004.16;10403226;27;96663;-84
2022/08/03 15:15:04;;;;;;;2.47;1.73;;;35.10;40.00;;;33.19;24.14;100004.78;10413431;27;96730;-83
2022/08/03 15:20:09;;;;;;;1.98;1.55;;;34.80;40.40;;;33.36;24.75;100008.66;10448124;27;96701;-83
2022/08/03 15:25:25;;;;;;;2.87;1.73;;;34.80;40.80;;;33.62;24.62;100005.91;10444553;27;96554;-84
2022/08/03 15:30:51;;;;;;;2.85;1.60;;;35.00;41.10;;;33.67;24.71;100014.00;10435841;27;96873;-84
2022/08/03 15:35:55;;;;;;;2.25;1.92;;;35.00;40.90;;;33.63;26.22;100008.31;10443457;27;96512;-83
2022/08/03 15:40:58;;;;;;;5.28;2.35;;;35.10;42.10;;;33.65;27.38;100010.75;10446140;27;96544;-83
2022/08/03 15:46:02;;;;;;;3.00;2.20;;;35.00;42.90;;;33.69;27.21;100011.72;10438563;27;96636;-84
2022/08/03 15:51:25;;;;;;;2.72;2.13;;;35.00;44.00;;;33.43;27.46;100003.50;10419773;27;97112;-83
2022/08/03 15:56:27;;;;;;;4.25;2.13;;;34.80;43.60;;;32.91;28.30;100009.75;10422747;27;96712;-83
2022/08/03 16:01:30;;;;;;;2.35;2.15;;;34.20;44.10;;;32.39;28.88;100008.81;10434143;27;96795;-83
2022/08/03 16:06:33;;;;;;;2.72;1.90;;;33.50;44.70;;;31.89;29.54;100012.56;10438990;27;96612;-82
2022/08/03 16:11:38;;;;;;;3.33;2.42;;;32.90;45.40;;;31.53;30.30;100007.13;10426340;27;96568;-87
2022/08/03 16:16:41;;;;;;;5.07;2.20;;;32.50;46.10;;;31.17;31.06;100013.41;10415201;27;96541;-87
2022/08/03 16:21:44;;;;;;;5.05;2.40;;;32.10;46.50;;;30.85;31.87;100005.38;10448884;27;96662;-87
2022/08/03 16:26:50;;;;;;;3.88;2.30;;;31.80;47.20;;;30.51;32.74;99998.34;10429242;27;97315;-86
2022/08/03 16:31:53;;;;;;;4.60;2.60;;;31.50;47.80;;;30.17;32.79;100001.50;10435049;27;98810;-87
2022/08/03 16:36:56;;;;;;;3.75;2.17;;;31.10;48.20;;;29.92;33.62;99999.19;10431404;27;96902;-86
2022/08/03 16:41:59;;;;;;;2.33;2.10;;;30.90;48.60;;;29.71;33.65;100004.22;10424982;27;96713;-87
2022/08/03 16:47:03;;;;;;;2.50;1.85;;;30.70;48.80;;;29.53;33.90;100003.94;10436223;27;99076;-87
2022/08/03 16:52:06;;;;;;;4.40;2.20;;;30.60;49.30;;;29.38;34.44;100012.34;10441042;27;97201;-84
2022/08/03 16:57:09;;;;;;;3.08;1.90;;;30.40;49.80;;;29.30;35.20;100004.84;10454438;27;96713;-85
2022/08/03 17:02:24;;;;;;;4.93;1.92;;;30.30;50.10;;;29.18;35.50;100004.47;10454801;27;98404;-84
2022/08/03 17:07:28;;;;;;;6.38;2.50;;;30.20;50.30;;;29.08;35.38;100012.81;10440131;27;96688;-85
2022/08/03 17:12:32;;;;;;;6.22;1.90;;;30.10;50.50;;;29.00;36.81;100023.31;10438427;27;96607;-83
2022/08/03 17:17:42;;;;;;;4.55;2.28;;;30.00;51.20;;;28.94;37.25;100018.22;10437820;27;97582;-83
2022/08/03 17:23:01;;;;;;;;;;;30.00;52.10;;;28.88;38.06;100028.38;10416805;28;96519;-83
2022/08/03 17:28:05;;;;;;;2.88;2.00;;;29.90;52.80;;;28.77;37.79;100030.41;10408154;27;96643;-83
2022/08/03 17:33:29;;;;;;;5.40;2.53;;;29.90;52.20;;;28.60;38.41;100032.00;10436396;27;96906;-83
2022/08/03 17:38:39;;;;;;;4.45;2.58;;;29.70;52.60;;;28.47;38.77;100042.53;10425852;27;96725;-83
2022/08/03 17:43:45;;;;;;;3.33;2.13;;;29.60;52.90;;;28.30;38.93;100042.13;10431435;27;97283;-83
2022/08/03 17:49:09;;;;;;;2.80;2.20;;;29.40;53.20;;;28.17;38.70;100045.53;10442221;27;96629;-83
2022/08/03 17:54:43;;;;;;;6.80;2.50;;;29.20;53.50;;;27.98;39.63;100040.00;10436911;27;96631;-86
2022/08/03 18:05:37;;;;;;;3.42;2.50;;;28.90;54.50;;;27.63;41.05;100041.88;10419602;27;96486;-86
2022/08/03 18:11:08;;;;;;;4.18;2.42;;;28.70;55.00;;;27.48;41.23;100042.81;10445267;27;96758;-87
2022/08/03 18:17:00;;;;;;;4.15;2.47;;;28.60;55.40;;;27.29;42.05;100054.66;10416722;27;97118;-84
2022/08/03 18:22:03;;;;;;;4.45;2.65;;;28.40;56.00;;;27.11;41.55;100059.69;10432202;27;98262;-87
2022/08/03 18:27:09;;;;;;;7.97;2.58;;;28.20;56.00;;;26.98;42.37;100064.88;10415841;27;98977;-87
2022/08/03 18:32:13;;;;;;;3.92;3.20;;;28.10;56.40;;;26.83;42.69;100066.59;10412224;27;97234;-87
2022/08/03 18:37:24;;;;;;;5.75;3.15;;;28.00;56.70;;;26.64;43.28;100074.56;10418878;27;96644;-86
2022/08/03 18:42:27;;;;;;;3.28;2.78;;;27.90;57.30;;;26.49;44.16;100074.59;10418295;27;98521;-86
2022/08/03 18:47:58;;;;;;;3.88;3.20;;;27.70;57.60;;;26.25;44.30;100077.06;10418505;27;98522;-86
2022/08/03 18:53:20;;;;;;;6.10;3.30;;;27.50;58.10;;;26.01;44.41;100087.69;10446674;27;98395;-86
2022/08/03 18:59:01;;;;;;;4.65;2.80;;;27.20;58.40;;;25.81;44.29;100099.41;10434717;27;96581;-86
2022/08/03 19:04:30;;;;;;;5.85;2.53;;;27.00;58.20;;;25.66;43.87;100102.06;10439358;27;97332;-86
2022/08/03 19:09:54;;;;;;;4.88;2.75;;;26.80;57.70;;;25.58;43.93;100102.59;10423196;27;97142;-86
2022/08/03 19:15:07;;;;;;;2.80;2.58;;;26.70;57.80;;;25.52;42.84;100101.78;10430324;27;96978;-85
2022/08/03 19:20:30;;;;;;;5.32;2.90;;;26.70;57.40;;;25.43;45.01;100110.72;10424083;27;97504;-83
2022/08/03 19:25:38;;;;;;;2.88;2.58;;;26.60;58.30;;;25.35;45.96;100114.78;10449363;27;96992;-84
2022/08/03 19:30:47;;;;;;;5.25;3.30;;;26.60;59.10;;;25.23;46.56;100109.56;10418803;27;98061;-83
2022/08/03 19:35:56;;;;;;;4.10;3.70;;;26.50;59.60;;;25.09;47.63;100122.84;10429828;27;97172;-84
2022/08/03 19:41:04;;;;;;;4.03;3.63;;;26.30;60.40;;;24.98;48.03;100128.47;10421234;27;96705;-83
2022/08/03 19:46:12;;;;;;;3.65;3.17;;;26.30;61.20;;;24.84;48.28;100130.88;10431579;27;97353;-84
2022/08/03 19:51:16;;;;;;;6.90;3.20;;;26.10;61.30;;;24.65;48.41;100141.34;10413584;27;96617;-84
2022/08/03 19:56:29;;;;;;;4.22;2.78;;;25.80;61.30;;;24.43;47.64;100129.78;10403141;27;98426;-84
2022/08/03 20:01:32;;;;;;;4.20;1.98;;;25.60;61.30;;;24.18;46.08;100141.25;10410232;27;96662;-84
2022/08/03 20:06:55;;;;;;;2.30;2.00;;;25.40;60.20;;;23.98;45.57;100141.88;10415846;27;97013;-84
2022/08/03 20:11:59;;;;;;;3.08;1.60;;;25.20;59.80;;;23.86;44.85;100136.59;10413339;27;98890;-84
2022/08/03 20:17:02;;;;;;;2.22;1.67;;;25.00;58.60;;;23.78;44.13;100145.22;10416465;27;97226;-84
2022/08/03 20:22:11;;;;;;;3.47;1.60;;;25.00;58.30;;;23.74;44.45;100133.22;10402314;27;96686;-84
2022/08/03 20:27:19;;;;;;;2.58;1.60;;;25.00;58.10;;;23.66;44.40;100147.25;10419089;27;96625;-84
2022/08/03 20:32:22;;;;;;;2.50;1.38;;;24.90;58.00;;;23.55;43.89;100145.47;10417058;27;96570;-85
2022/08/03 20:37:26;;;;;;;2.10;1.52;;;24.80;57.70;;;23.45;44.51;100148.88;10390744;27;97214;-83
2022/08/03 20:42:32;;;;;;;2.00;1.60;;;24.70;57.90;;;23.34;44.68;100155.28;10429322;27;96627;-84
2022/08/03 20:47:35;;;;;;;1.60;1.40;;;24.60;58.00;;;23.19;44.57;100154.00;10449495;27;98513;-84
2022/08/03 20:52:53;;;;;;;1.83;1.20;;;24.40;57.90;;;23.05;44.25;100144.63;10423969;27;98196;-84
2022/08/03 20:57:58;;;;;;;3.13;1.35;;;24.20;57.70;;;22.99;44.21;100148.34;10429327;27;97336;-84
2022/08/03 21:03:02;;;;;;;1.20;1.10;;;24.20;57.70;;;22.86;43.79;100144.06;10429880;27;96642;-84
2022/08/03 21:08:09;;;;;;;1.17;0.80;;;24.00;57.50;;;22.80;44.07;100139.66;10435570;27;96675;-84
2022/08/03 21:13:22;;;;;;;1.40;1.00;;;24.00;57.40;;;22.72;43.58;100142.75;10431218;27;96588;-84
2022/08/03 21:18:29;;;;;;;1.25;1.10;;;24.00;57.70;;;22.63;43.57;100152.41;10429174;27;97793;-84
2022/08/03 21:23:37;;;;;;;1.88;1.08;;;23.80;57.00;;;22.54;43.63;100153.88;10421458;27;97229;-84
2022/08/03 21:28:54;;;;;;;3.05;1.02;;;23.70;57.30;;;22.43;44.20;100152.88;10437559;27;98408;-84
2022/08/03 21:34:02;;;;;;;1.48;1.15;;;23.60;57.40;;;22.34;44.15;100163.31;10420060;27;97002;-84